createdAt,value
2018-10-17T00:00:43.098Z,37.23
2018-10-17T00:03:12.450Z,38.97
2018-10-17T00:05:42.104Z,38.13
2018-10-17T00:08:11.907Z,39.83
2018-10-17T00:10:41.310Z,38.17
2018-10-17T00:13:11.024Z,40.00
2018-10-17T00:15:40.250Z,39.70
2018-10-17T00:18:09.551Z,41.70
2018-10-17T00:20:39.080Z,41.83
2018-10-17T00:23:08.766Z,39.93
2018-10-17T00:25:38.004Z,42.47
2018-10-17T00:28:07.550Z,42.73
2018-10-17T00:30:37.177Z,41.23
2018-10-17T00:33:06.465Z,39.93
2018-10-17T00:35:35.987Z,39.63
2018-10-17T00:38:05.728Z,37.83
2018-10-17T00:40:35.437Z,38.53
2018-10-17T00:43:05.531Z,36.73
2018-10-17T00:45:34.916Z,40.03
2018-10-17T00:48:04.226Z,38.27
2018-10-17T00:50:33.706Z,35.90
2018-10-17T00:53:03.447Z,35.93
2018-10-17T00:55:32.941Z,37.83
2018-10-17T00:58:02.666Z,37.13
2018-10-17T01:00:32.109Z,36.50
2018-10-17T01:03:01.680Z,36.43
2018-10-17T01:05:31.071Z,36.83
2018-10-17T01:08:00.335Z,35.17
2018-10-17T01:10:29.777Z,37.23
2018-10-17T01:12:59.479Z,37.27
2018-10-17T01:15:28.792Z,37.73
2018-10-17T01:17:58.237Z,35.60
2018-10-17T01:20:27.781Z,37.53
2018-10-17T01:22:57.320Z,36.13
2018-10-17T01:25:26.972Z,36.20
2018-10-17T01:27:56.407Z,36.67
2018-10-17T01:30:25.715Z,36.17
2018-10-17T01:32:55.086Z,37.00
2018-10-17T01:35:24.865Z,37.53
2018-10-17T01:37:54.210Z,39.00
2018-10-17T01:40:23.656Z,37.67
2018-10-17T01:42:53.292Z,36.70
2018-10-17T01:45:22.883Z,37.97
2018-10-17T01:47:52.266Z,36.90
2018-10-17T01:50:21.855Z,37.17
2018-10-17T01:52:51.159Z,37.67
2018-10-17T01:55:20.815Z,35.60
2018-10-17T01:57:50.584Z,36.97
2018-10-17T02:00:20.107Z,37.80
2018-10-17T02:02:49.421Z,37.00
2018-10-17T02:05:19.286Z,38.00
2018-10-17T02:07:48.583Z,36.70
2018-10-17T02:10:19.062Z,36.70
2018-10-17T02:12:49.346Z,36.13
2018-10-17T02:15:18.509Z,36.60
2018-10-17T02:17:48.076Z,35.77
2018-10-17T02:20:18.279Z,37.13
2018-10-17T02:22:47.855Z,35.67
2018-10-17T02:25:17.082Z,36.60
2018-10-17T02:27:46.791Z,38.77
2018-10-17T02:30:16.224Z,37.20
2018-10-17T02:32:45.583Z,37.47
2018-10-17T02:35:15.901Z,38.80
2018-10-17T02:37:45.442Z,36.97
2018-10-17T02:40:14.717Z,38.27
2018-10-17T02:42:44.362Z,39.27
2018-10-17T02:45:14.482Z,37.70
2018-10-17T02:47:43.728Z,37.67
2018-10-17T02:50:13.686Z,37.70
2018-10-17T02:52:43.537Z,35.47
2018-10-17T02:55:12.968Z,36.97
2018-10-17T02:57:42.603Z,37.27
2018-10-17T03:00:11.844Z,37.23
2018-10-17T03:02:41.402Z,36.97
2018-10-17T03:05:11.401Z,37.23
2018-10-17T03:07:40.814Z,36.67
2018-10-17T03:10:10.147Z,37.47
2018-10-17T03:12:40.108Z,39.17
2018-10-17T03:15:10.098Z,36.43
2018-10-17T03:17:39.247Z,37.00
2018-10-17T03:20:10.007Z,38.80
2018-10-17T03:22:39.613Z,38.80
2018-10-17T03:25:09.995Z,38.43
2018-10-17T03:27:39.817Z,37.33
2018-10-17T03:30:09.362Z,38.40
2018-10-17T03:32:38.620Z,38.77
2018-10-17T03:35:08.564Z,36.70
2018-10-17T03:37:37.879Z,37.83
2018-10-17T03:40:07.400Z,37.70
2018-10-17T03:42:36.947Z,39.17
2018-10-17T03:45:06.988Z,38.17
2018-10-17T03:47:36.362Z,37.67
2018-10-17T03:50:06.400Z,39.90
2018-10-17T03:52:35.604Z,40.17
2018-10-17T03:55:04.993Z,39.07
2018-10-17T03:57:34.690Z,40.43
2018-10-17T04:00:04.357Z,39.10
2018-10-17T04:02:33.816Z,38.70
2018-10-17T04:05:03.747Z,40.67
2018-10-17T04:07:33.253Z,39.27
2018-10-17T04:10:02.782Z,38.67
2018-10-17T04:12:32.595Z,38.60
2018-10-17T04:15:02.030Z,40.17
2018-10-17T04:17:31.476Z,39.93
2018-10-17T04:20:00.819Z,40.27
2018-10-17T04:22:30.363Z,40.43
2018-10-17T04:24:59.820Z,39.40
2018-10-17T04:27:29.556Z,39.97
2018-10-17T04:29:59.012Z,40.67
2018-10-17T04:32:28.644Z,41.43
2018-10-17T04:34:58.370Z,42.27
2018-10-17T04:37:27.722Z,43.87
2018-10-17T04:39:57.317Z,42.97
2018-10-17T04:42:27.300Z,43.73
2018-10-17T04:44:56.477Z,44.33
2018-10-17T04:47:26.049Z,44.03
2018-10-17T04:49:55.951Z,43.10
2018-10-17T04:52:25.331Z,42.70
2018-10-17T04:54:54.931Z,44.27
2018-10-17T04:57:24.486Z,43.73
2018-10-17T04:59:53.759Z,46.07
2018-10-17T05:02:23.352Z,42.87
2018-10-17T05:04:53.078Z,44.47
2018-10-17T05:07:22.415Z,44.27
2018-10-17T05:09:52.171Z,45.03
2018-10-17T05:12:21.763Z,44.23
2018-10-17T05:14:51.112Z,43.90
2018-10-17T05:17:21.266Z,42.93
2018-10-17T05:19:51.457Z,45.37
2018-10-17T05:22:21.067Z,46.27
2018-10-17T05:24:50.634Z,45.57
2018-10-17T05:27:20.438Z,44.97
2018-10-17T05:29:49.979Z,44.13
2018-10-17T05:32:19.409Z,45.30
2018-10-17T05:34:49.277Z,44.93
2018-10-17T05:37:19.273Z,45.47
2018-10-17T05:39:48.924Z,44.40
2018-10-17T05:42:18.922Z,44.87
2018-10-17T05:44:48.229Z,46.77
2018-10-17T05:47:17.686Z,46.77
2018-10-17T05:49:47.899Z,48.17
2018-10-17T05:52:17.448Z,48.47
2018-10-17T05:54:46.797Z,47.33
2018-10-17T05:57:16.327Z,47.20
2018-10-17T05:59:46.302Z,46.97
2018-10-17T06:02:18.972Z,46.27
2018-10-17T06:04:48.253Z,45.93
2018-10-17T06:07:17.748Z,47.50
2018-10-17T06:09:47.144Z,48.27
2018-10-17T06:12:16.753Z,47.23
2018-10-17T06:14:46.278Z,48.30
2018-10-17T06:17:15.643Z,47.47
2018-10-17T06:19:45.230Z,46.03
2018-10-17T06:22:14.777Z,48.03
2018-10-17T06:24:44.173Z,47.30
2018-10-17T06:27:13.651Z,48.13
2018-10-17T06:29:43.243Z,49.47
2018-10-17T06:32:12.579Z,49.73
2018-10-17T06:34:41.960Z,51.67
2018-10-17T06:37:11.760Z,49.43
2018-10-17T06:39:40.868Z,48.77
2018-10-17T06:42:10.565Z,48.37
2018-10-17T06:44:40.230Z,51.57
2018-10-17T06:47:09.799Z,51.57
2018-10-17T06:49:39.341Z,51.53
2018-10-17T06:52:08.733Z,48.97
2018-10-17T06:54:38.164Z,50.03
2018-10-17T06:57:07.779Z,49.90
2018-10-17T06:59:37.671Z,52.23
2018-10-17T07:02:07.377Z,50.57
2018-10-17T07:04:36.988Z,50.07
2018-10-17T07:07:06.606Z,50.30
2018-10-17T07:09:35.877Z,50.90
2018-10-17T07:12:05.442Z,50.87
2018-10-17T07:14:34.958Z,49.27
2018-10-17T07:17:05.138Z,47.37
2018-10-17T07:19:34.506Z,47.73
2018-10-17T07:22:04.313Z,49.27
2018-10-17T07:24:33.726Z,50.07
2018-10-17T07:27:03.219Z,49.23
2018-10-17T07:29:32.909Z,48.67
2018-10-17T07:32:02.116Z,49.40
2018-10-17T07:34:31.551Z,49.70
2018-10-17T07:37:01.068Z,50.87
2018-10-17T07:39:30.470Z,49.60
2018-10-17T07:42:00.128Z,47.53
2018-10-17T07:44:29.824Z,47.23
2018-10-17T07:46:59.080Z,48.60
2018-10-17T07:49:28.429Z,45.20
2018-10-17T07:51:58.001Z,43.83
2018-10-17T07:54:27.418Z,41.73
2018-10-17T07:56:56.967Z,44.50
2018-10-17T07:59:26.497Z,40.67
2018-10-17T08:01:56.013Z,39.60
2018-10-17T08:04:25.476Z,37.80
2018-10-17T08:06:54.809Z,38.87
2018-10-17T08:09:24.128Z,40.93
2018-10-17T08:11:53.952Z,37.50
2018-10-17T08:14:23.484Z,36.63
2018-10-17T08:16:53.205Z,38.80
2018-10-17T08:19:22.921Z,38.43
2018-10-17T08:21:52.392Z,40.63
2018-10-17T08:24:22.721Z,41.13
2018-10-17T08:26:52.226Z,40.57
2018-10-17T08:29:21.620Z,39.17
2018-10-17T08:31:51.277Z,39.97
2018-10-17T08:34:21.208Z,39.37
2018-10-17T08:36:50.776Z,39.03
2018-10-17T08:39:20.006Z,39.87
2018-10-17T08:41:49.650Z,37.60
2018-10-17T08:46:57.667Z,37.10
2018-10-17T08:49:27.228Z,37.90
2018-10-17T08:51:56.658Z,37.50
2018-10-17T08:54:26.857Z,35.77
2018-10-17T08:56:56.015Z,35.70
2018-10-17T08:59:25.424Z,37.17
2018-10-17T09:01:55.054Z,37.10
2018-10-17T09:04:24.534Z,35.03
2018-10-17T09:06:53.562Z,35.43
2018-10-17T09:09:23.616Z,34.83
2018-10-17T09:11:53.545Z,36.10
2018-10-17T09:14:23.060Z,34.87
2018-10-17T09:16:52.775Z,34.70
2018-10-17T09:19:22.367Z,33.73
2018-10-17T09:21:52.163Z,34.97
2018-10-17T09:24:21.844Z,35.93
2018-10-17T09:26:51.801Z,34.67
2018-10-17T09:29:21.428Z,33.50
2018-10-17T09:31:51.279Z,35.60
2018-10-17T09:34:21.517Z,33.87
2018-10-17T09:36:51.290Z,36.47
2018-10-17T09:39:20.985Z,34.13
2018-10-17T09:41:50.757Z,36.83
2018-10-17T09:44:20.415Z,36.50
2018-10-17T09:46:49.978Z,35.00
2018-10-17T09:49:19.873Z,33.70
2018-10-17T09:51:49.446Z,34.03
2018-10-17T09:54:18.916Z,35.07
2018-10-17T09:56:48.542Z,35.50
2018-10-17T09:59:18.092Z,36.90
2018-10-17T10:01:48.109Z,35.13
2018-10-17T10:04:17.606Z,35.80
2018-10-17T10:06:47.149Z,37.73
2018-10-17T10:09:16.536Z,36.43
2018-10-17T10:11:46.202Z,37.13
2018-10-17T10:14:15.742Z,37.97
2018-10-17T10:16:45.118Z,37.43
2018-10-17T10:19:14.469Z,36.77
2018-10-17T10:21:44.060Z,36.87
2018-10-17T10:24:13.497Z,35.87
2018-10-17T10:26:43.185Z,36.80
2018-10-17T10:29:12.549Z,36.77
2018-10-17T10:31:41.762Z,36.27
2018-10-17T10:34:11.155Z,37.67
2018-10-17T10:36:40.678Z,37.93
2018-10-17T10:39:12.484Z,37.33
2018-10-17T10:41:42.156Z,37.50
2018-10-17T10:44:11.560Z,37.93
2018-10-17T10:46:41.388Z,37.43
2018-10-17T10:49:11.302Z,37.47
2018-10-17T10:51:40.634Z,35.97
2018-10-17T10:54:11.530Z,38.10
2018-10-17T10:56:41.026Z,37.80
2018-10-17T10:59:10.344Z,36.27
2018-10-17T11:01:40.102Z,37.37
2018-10-17T11:04:09.377Z,36.80
2018-10-17T11:06:38.741Z,37.13
2018-10-17T11:09:09.428Z,36.53
2018-10-17T11:11:39.191Z,37.37
2018-10-17T11:14:09.336Z,38.03
2018-10-17T11:16:38.819Z,36.70
2018-10-17T11:19:08.313Z,36.27
2018-10-17T11:21:37.662Z,37.83
2018-10-17T11:24:07.531Z,36.40
2018-10-17T11:26:37.003Z,37.53
2018-10-17T11:29:07.506Z,37.00
2018-10-17T11:31:37.156Z,38.70
2018-10-17T11:34:06.774Z,39.33
2018-10-17T11:36:36.006Z,37.80
2018-10-17T11:39:07.747Z,36.93
2018-10-17T11:41:37.069Z,36.70
2018-10-17T11:44:07.233Z,39.47
2018-10-17T11:46:37.647Z,38.33
2018-10-17T11:49:07.125Z,37.03
2018-10-17T11:51:36.424Z,39.80
2018-10-17T11:54:06.611Z,39.40
2018-10-17T11:56:35.871Z,37.83
2018-10-17T11:59:05.554Z,38.40
2018-10-17T12:01:35.030Z,37.73
2018-10-17T12:04:04.555Z,38.83
2018-10-17T12:06:34.028Z,38.53
2018-10-17T12:09:03.751Z,37.90
2018-10-17T12:11:33.179Z,38.23
2018-10-17T12:14:03.052Z,37.80
2018-10-17T12:16:32.599Z,38.07
2018-10-17T12:19:02.025Z,39.43
2018-10-17T12:21:31.740Z,37.33
2018-10-17T12:24:01.381Z,38.27
2018-10-17T12:26:30.774Z,36.03
2018-10-17T12:29:00.441Z,35.57
2018-10-17T12:31:30.067Z,36.73
2018-10-17T12:33:59.465Z,35.00
2018-10-17T12:36:28.972Z,36.13
2018-10-17T12:38:58.564Z,36.70
2018-10-17T12:41:27.788Z,37.13
2018-10-17T12:43:57.326Z,36.97
2018-10-17T12:46:26.748Z,38.00
2018-10-17T12:48:56.427Z,37.17
2018-10-17T12:51:25.976Z,38.10
2018-10-17T12:53:55.425Z,37.97
2018-10-17T12:56:24.824Z,38.37
2018-10-17T12:58:54.531Z,37.77
2018-10-17T13:01:24.981Z,38.17
2018-10-17T13:03:55.735Z,37.97
2018-10-17T13:06:24.986Z,38.33
2018-10-17T13:08:54.438Z,37.77
2018-10-17T13:11:25.343Z,39.07
2018-10-17T13:13:54.732Z,38.10
2018-10-17T13:16:24.186Z,38.40
2018-10-17T13:18:53.966Z,38.13
2018-10-17T13:21:23.805Z,37.67
2018-10-17T13:23:53.630Z,37.80
2018-10-17T13:26:24.058Z,37.17
2018-10-17T13:28:53.308Z,36.53
2018-10-17T13:31:23.233Z,37.37
2018-10-17T13:33:52.912Z,36.67
2018-10-17T13:36:22.560Z,36.20
2018-10-17T13:38:52.038Z,36.77
2018-10-17T13:41:21.597Z,36.50
2018-10-17T13:43:51.050Z,34.80
2018-10-17T13:46:21.113Z,35.63
2018-10-17T13:48:50.611Z,37.10
2018-10-17T13:51:20.276Z,35.67
2018-10-17T13:53:49.988Z,35.40
2018-10-17T13:56:19.452Z,36.63
2018-10-17T13:58:49.125Z,34.83
2018-10-17T14:01:19.290Z,35.50
2018-10-17T14:03:48.735Z,34.97
2018-10-17T14:06:18.433Z,35.23
2018-10-17T14:08:48.104Z,35.73
2018-10-17T14:11:17.798Z,34.97
2018-10-17T14:13:47.063Z,35.07
2018-10-17T14:16:16.576Z,34.57
2018-10-17T14:18:46.172Z,36.20
2018-10-17T14:21:16.052Z,33.50
2018-10-17T14:23:45.869Z,33.43
2018-10-17T14:26:15.337Z,35.17
2018-10-17T14:28:45.167Z,35.07
2018-10-17T14:31:14.573Z,33.67
2018-10-17T14:33:43.913Z,33.90
2018-10-17T14:36:13.420Z,32.90
2018-10-17T14:38:43.016Z,33.53
2018-10-17T14:41:12.218Z,34.80
2018-10-17T14:43:41.836Z,34.03
2018-10-17T14:46:11.580Z,32.80
2018-10-17T14:48:41.039Z,33.70
2018-10-17T14:51:10.776Z,34.60
2018-10-17T14:53:40.433Z,33.13
2018-10-17T14:56:09.886Z,33.17
2018-10-17T14:58:39.473Z,33.13
2018-10-17T15:01:09.153Z,35.20
2018-10-17T15:03:38.839Z,34.03
2018-10-17T15:06:09.011Z,34.87
2018-10-17T15:08:38.611Z,34.67
2018-10-17T15:11:08.294Z,35.33
2018-10-17T15:13:38.626Z,35.80
2018-10-17T15:16:08.069Z,37.00
2018-10-17T15:18:37.647Z,36.07
2018-10-17T15:21:07.431Z,36.07
2018-10-17T15:23:37.415Z,36.47
2018-10-17T15:26:07.407Z,36.83
2018-10-17T15:28:37.112Z,37.60
2018-10-17T15:31:07.088Z,37.87
2018-10-17T15:33:37.114Z,38.30
2018-10-17T15:36:07.999Z,37.70
2018-10-17T15:38:37.645Z,38.17
2018-10-17T15:41:07.969Z,38.47
2018-10-17T15:43:38.233Z,39.00
2018-10-17T15:46:08.504Z,39.07
2018-10-17T15:48:38.203Z,38.40
2018-10-17T15:51:07.913Z,39.60
2018-10-17T15:53:37.392Z,38.67
2018-10-17T15:56:07.131Z,39.37
2018-10-17T15:58:36.810Z,39.77
2018-10-17T16:01:06.567Z,39.83
2018-10-17T16:03:37.285Z,39.77
2018-10-17T16:06:07.387Z,40.77
2018-10-17T16:08:36.747Z,41.60
2018-10-17T16:11:07.125Z,41.60
2018-10-17T16:13:37.268Z,40.87
2018-10-17T16:16:06.950Z,41.43
2018-10-17T16:18:36.408Z,40.80
2018-10-17T16:21:06.425Z,42.37
2018-10-17T16:23:36.142Z,45.40
2018-10-17T16:26:05.524Z,44.60
2018-10-17T16:28:35.356Z,41.93
2018-10-17T16:31:04.958Z,43.13
2018-10-17T16:33:34.186Z,42.50
2018-10-17T16:36:03.925Z,40.37
2018-10-17T16:38:33.394Z,41.70
2018-10-17T16:41:03.886Z,40.60
2018-10-17T16:43:33.596Z,42.83
2018-10-17T16:46:02.908Z,41.40
2018-10-17T16:48:32.395Z,41.53
2018-10-17T16:51:01.908Z,40.67
2018-10-17T16:53:31.392Z,41.10
2018-10-17T16:56:00.881Z,42.97
2018-10-17T16:58:30.566Z,41.07
2018-10-17T17:00:59.873Z,41.57
2018-10-17T17:03:29.314Z,42.80
2018-10-17T17:05:59.230Z,42.20
2018-10-17T17:08:28.648Z,42.80
2018-10-17T17:10:58.039Z,42.93
2018-10-17T17:13:27.697Z,42.30
2018-10-17T17:15:57.196Z,42.77
2018-10-17T17:18:26.684Z,42.40
2018-10-17T17:20:56.629Z,43.77
2018-10-17T17:23:26.249Z,42.73
2018-10-17T17:25:55.727Z,42.77
2018-10-17T17:28:25.507Z,44.17
2018-10-17T17:30:55.258Z,44.57
2018-10-17T17:33:24.681Z,43.80
2018-10-17T17:35:54.592Z,43.50
2018-10-17T17:38:24.590Z,45.03
2018-10-17T17:40:54.170Z,43.73
2018-10-17T17:43:23.831Z,44.30
2018-10-17T17:45:54.035Z,43.43
2018-10-17T17:48:24.702Z,42.73
2018-10-17T17:50:54.164Z,44.50
2018-10-17T17:53:23.766Z,45.97
2018-10-17T17:55:53.760Z,45.33
2018-10-17T17:58:23.573Z,46.60
2018-10-17T18:00:53.251Z,44.60
2018-10-17T18:03:23.247Z,45.87
2018-10-17T18:05:52.822Z,45.40
2018-10-17T18:08:22.967Z,45.87
2018-10-17T18:10:52.760Z,46.10
2018-10-17T18:13:22.145Z,45.13
2018-10-17T18:15:51.861Z,45.67
2018-10-17T18:18:22.264Z,45.60
2018-10-17T18:20:51.655Z,46.30
2018-10-17T18:23:21.654Z,45.23
2018-10-17T18:25:51.158Z,44.93
2018-10-17T18:28:20.911Z,44.97
2018-10-17T18:30:50.747Z,46.43
2018-10-17T18:33:21.026Z,45.87
2018-10-17T18:35:50.547Z,45.47
2018-10-17T18:38:20.903Z,46.43
2018-10-17T18:40:52.740Z,45.03
2018-10-17T18:43:22.724Z,45.30
2018-10-17T18:45:52.686Z,46.80
2018-10-17T18:48:22.797Z,46.80
2018-10-17T18:50:52.626Z,46.60
2018-10-17T18:53:22.363Z,46.20
2018-10-17T18:55:52.429Z,46.57
2018-10-17T18:58:22.354Z,45.93
2018-10-17T19:00:52.156Z,45.90
2018-10-17T19:03:22.418Z,46.83
2018-10-17T19:05:52.301Z,45.37
2018-10-17T19:08:22.576Z,48.53
2018-10-17T19:10:51.975Z,51.50
2018-10-17T19:13:21.670Z,49.57
2018-10-17T19:15:51.296Z,49.07
2018-10-17T19:18:21.155Z,48.53
2018-10-17T19:20:50.317Z,51.27
2018-10-17T19:23:20.371Z,49.80
2018-10-17T19:25:50.494Z,49.27
2018-10-17T19:28:19.930Z,47.70
2018-10-17T19:30:49.909Z,48.37
2018-10-17T19:33:19.558Z,50.03
2018-10-17T19:35:48.740Z,51.17
2018-10-17T19:38:18.428Z,51.63
2018-10-17T19:40:48.649Z,50.43
2018-10-17T19:43:18.311Z,49.27
2018-10-17T19:45:47.925Z,48.90
2018-10-17T19:48:17.353Z,49.97
2018-10-17T19:50:46.738Z,50.80
2018-10-17T19:53:17.577Z,51.37
2018-10-17T19:55:47.245Z,50.27
2018-10-17T19:58:16.548Z,49.40
2018-10-17T20:00:46.192Z,51.03
2018-10-17T20:03:16.124Z,46.63
2018-10-17T20:05:45.945Z,46.23
2018-10-17T20:08:15.458Z,41.20
2018-10-17T20:10:44.967Z,38.90
2018-10-17T20:13:14.229Z,39.53
2018-10-17T20:15:44.199Z,41.70
2018-10-17T20:18:13.952Z,35.87
2018-10-17T20:20:43.931Z,36.23
2018-10-17T20:23:13.421Z,31.53
2018-10-17T20:25:42.949Z,35.53
2018-10-17T20:28:12.240Z,33.30
2018-10-17T20:30:41.793Z,29.53
2018-10-17T20:33:11.665Z,29.50
2018-10-17T20:35:41.457Z,30.77
2018-10-17T20:38:11.179Z,28.30
2018-10-17T20:40:40.822Z,27.37
2018-10-17T20:43:10.370Z,28.10
2018-10-17T20:45:40.755Z,29.27
2018-10-17T20:48:10.490Z,26.57
2018-10-17T20:50:44.379Z,26.00
2018-10-17T20:53:13.955Z,26.97
2018-10-17T20:55:43.720Z,26.03
2018-10-17T20:58:13.637Z,24.90
2018-10-17T21:00:43.968Z,26.77
2018-10-17T21:03:14.049Z,24.93
2018-10-17T21:05:44.209Z,24.80
2018-10-17T21:08:14.471Z,26.37
2018-10-17T21:10:44.826Z,27.27
2018-10-17T21:13:14.722Z,27.20
2018-10-17T21:15:44.700Z,28.10
2018-10-17T21:18:14.629Z,28.00
2018-10-17T21:20:45.338Z,27.93
2018-10-17T21:23:15.230Z,24.97
2018-10-17T21:25:44.808Z,26.93
2018-10-17T21:28:15.619Z,27.83
2018-10-17T21:30:45.777Z,26.27
2018-10-17T21:33:15.301Z,26.50
2018-10-17T21:35:45.801Z,23.97
2018-10-17T21:38:15.650Z,26.73
2018-10-17T21:40:45.305Z,25.20
2018-10-17T21:43:15.453Z,25.20
2018-10-17T21:45:46.105Z,24.93
2018-10-17T21:48:16.953Z,26.07
2018-10-17T21:50:47.640Z,26.63
2018-10-17T21:53:18.878Z,26.13
2018-10-17T21:55:48.599Z,26.67
2018-10-17T21:58:18.240Z,27.63
2018-10-17T22:00:48.159Z,26.23
2018-10-17T22:03:21.927Z,26.93
2018-10-17T22:05:54.638Z,28.77
2018-10-17T22:08:24.058Z,24.93
2018-10-17T22:10:54.651Z,24.73
2018-10-17T22:13:25.996Z,23.30
2018-10-17T22:15:56.240Z,25.70
2018-10-17T22:18:26.222Z,24.10
2018-10-17T22:20:56.198Z,24.50
2018-10-17T22:23:26.232Z,25.40
2018-10-17T22:25:56.104Z,23.57
2018-10-17T22:28:26.425Z,21.50
2018-10-17T22:30:56.735Z,22.83
2018-10-17T22:33:26.460Z,23.87
2018-10-17T22:35:56.470Z,21.70
2018-10-17T22:38:26.000Z,21.87
2018-10-17T22:40:55.659Z,23.07
2018-10-17T22:43:25.784Z,22.03
2018-10-17T22:45:55.556Z,23.20
2018-10-17T22:48:25.476Z,20.90
2018-10-17T22:50:55.303Z,23.23
2018-10-17T22:53:24.962Z,23.03
2018-10-17T22:55:54.791Z,22.40
2018-10-17T22:58:24.463Z,22.83
2018-10-17T23:00:53.909Z,23.13
2018-10-17T23:03:23.361Z,22.37
2018-10-17T23:05:53.519Z,24.37
2018-10-17T23:08:23.165Z,23.10
2018-10-17T23:10:52.898Z,23.67
2018-10-17T23:13:22.826Z,23.20
2018-10-17T23:15:52.533Z,24.23
2018-10-17T23:18:22.279Z,24.57
2018-10-17T23:20:51.972Z,25.47
2018-10-17T23:23:21.573Z,25.10
2018-10-17T23:25:51.335Z,24.77
2018-10-17T23:28:21.498Z,24.27
2018-10-17T23:30:51.003Z,23.90
2018-10-17T23:33:21.039Z,23.30
2018-10-17T23:35:51.115Z,23.17
2018-10-17T23:38:20.947Z,23.40
2018-10-17T23:40:50.534Z,23.63
2018-10-17T23:43:19.953Z,22.73
2018-10-17T23:45:49.421Z,23.27
2018-10-17T23:48:19.032Z,21.67
2018-10-17T23:50:49.074Z,22.33
2018-10-17T23:53:18.853Z,21.43
2018-10-17T23:55:48.488Z,19.67
2018-10-17T23:58:18.203Z,20.27
